sensor_id;sensor_type;location;lat;lon;timestamp;pressure;altitude;pressure_sealevel;temperature;humidity
17521;BME280;8878;-33.370;-70.552;2023-04-04T00:00:24;91910.75;;;24.22;43.84
17521;BME280;8878;-33.370;-70.552;2023-04-04T00:02:53;91906.03;;;24.18;43.61
17521;BME280;8878;-33.370;-70.552;2023-04-04T00:05:22;91909.19;;;24.21;43.62
17521;BME280;8878;-33.370;-70.552;2023-04-04T00:07:52;91906.75;;;24.15;43.82
17521;BME280;8878;-33.370;-70.552;2023-04-04T00:10:21;91903.19;;;24.11;44.47
17521;BME280;8878;-33.370;-70.552;2023-04-04T00:12:50;91907.59;;;24.00;44.18
17521;BME280;8878;-33.370;-70.552;2023-04-04T00:15:19;91910.16;;;23.93;44.19
17521;BME280;8878;-33.370;-70.552;2023-04-04T00:17:52;91910.00;;;23.86;44.08
17521;BME280;8878;-33.370;-70.552;2023-04-04T00:20:21;91905.09;;;23.92;43.90
17521;BME280;8878;-33.370;-70.552;2023-04-04T00:22:50;91912.59;;;24.02;42.62
17521;BME280;8878;-33.370;-70.552;2023-04-04T00:25:19;91913.47;;;24.06;43.67
17521;BME280;8878;-33.370;-70.552;2023-04-04T00:27:49;91907.31;;;24.05;43.61
17521;BME280;8878;-33.370;-70.552;2023-04-04T00:30:18;91914.81;;;23.96;43.66
17521;BME280;8878;-33.370;-70.552;2023-04-04T00:32:47;91911.19;;;23.89;43.65
17521;BME280;8878;-33.370;-70.552;2023-04-04T00:35:19;91914.09;;;23.80;44.11
17521;BME280;8878;-33.370;-70.552;2023-04-04T00:37:48;91911.91;;;23.86;43.32
17521;BME280;8878;-33.370;-70.552;2023-04-04T00:40:17;91912.88;;;23.77;43.75
17521;BME280;8878;-33.370;-70.552;2023-04-04T00:42:47;91919.44;;;23.61;44.17
17521;BME280;8878;-33.370;-70.552;2023-04-04T00:45:16;91920.41;;;23.53;44.70
17521;BME280;8878;-33.370;-70.552;2023-04-04T00:47:46;91920.59;;;23.44;45.18
17521;BME280;8878;-33.370;-70.552;2023-04-04T00:50:16;91924.22;;;23.36;44.65
17521;BME280;8878;-33.370;-70.552;2023-04-04T00:52:47;91920.69;;;23.48;44.30
17521;BME280;8878;-33.370;-70.552;2023-04-04T00:55:16;91919.28;;;23.54;44.68
17521;BME280;8878;-33.370;-70.552;2023-04-04T00:57:46;91918.28;;;23.46;45.20
17521;BME280;8878;-33.370;-70.552;2023-04-04T01:00:17;91919.25;;;23.38;45.55
17521;BME280;8878;-33.370;-70.552;2023-04-04T01:02:46;91918.59;;;23.25;45.78
17521;BME280;8878;-33.370;-70.552;2023-04-04T01:05:16;91915.28;;;23.16;45.63
17521;BME280;8878;-33.370;-70.552;2023-04-04T01:07:47;91913.13;;;23.06;46.04
17521;BME280;8878;-33.370;-70.552;2023-04-04T01:10:17;91914.34;;;23.09;45.73
17521;BME280;8878;-33.370;-70.552;2023-04-04T01:12:46;91922.16;;;22.98;46.25
17521;BME280;8878;-33.370;-70.552;2023-04-04T01:15:16;91920.25;;;22.98;45.70
17521;BME280;8878;-33.370;-70.552;2023-04-04T01:17:45;91917.81;;;22.93;45.87
17521;BME280;8878;-33.370;-70.552;2023-04-04T01:20:17;91919.28;;;22.91;46.68
17521;BME280;8878;-33.370;-70.552;2023-04-04T01:22:50;91922.84;;;22.79;47.02
17521;BME280;8878;-33.370;-70.552;2023-04-04T01:25:27;91921.75;;;22.68;46.54
17521;BME280;8878;-33.370;-70.552;2023-04-04T01:27:58;91931.59;;;22.76;46.33
17521;BME280;8878;-33.370;-70.552;2023-04-04T01:30:29;91922.84;;;22.79;46.06
17521;BME280;8878;-33.370;-70.552;2023-04-04T01:33:02;91927.63;;;22.86;46.33
17521;BME280;8878;-33.370;-70.552;2023-04-04T01:35:37;91928.03;;;22.88;45.43
17521;BME280;8878;-33.370;-70.552;2023-04-04T01:38:15;91924.06;;;22.97;45.03
17521;BME280;8878;-33.370;-70.552;2023-04-04T01:40:49;91921.03;;;22.99;45.10
17521;BME280;8878;-33.370;-70.552;2023-04-04T01:43:20;91927.47;;;22.94;45.03
17521;BME280;8878;-33.370;-70.552;2023-04-04T01:45:49;91928.31;;;22.83;45.97
17521;BME280;8878;-33.370;-70.552;2023-04-04T01:48:18;91929.88;;;22.84;45.49
17521;BME280;8878;-33.370;-70.552;2023-04-04T01:50:48;91929.00;;;22.80;44.14
17521;BME280;8878;-33.370;-70.552;2023-04-04T01:53:17;91935.44;;;22.91;44.49
17521;BME280;8878;-33.370;-70.552;2023-04-04T01:55:48;91929.88;;;22.84;44.80
17521;BME280;8878;-33.370;-70.552;2023-04-04T01:58:18;91925.34;;;22.72;44.93
17521;BME280;8878;-33.370;-70.552;2023-04-04T02:00:47;91928.91;;;22.76;45.44
17521;BME280;8878;-33.370;-70.552;2023-04-04T02:03:16;91927.25;;;22.72;45.64
17521;BME280;8878;-33.370;-70.552;2023-04-04T02:05:45;91927.56;;;22.70;45.63
17521;BME280;8878;-33.370;-70.552;2023-04-04T02:08:16;91925.50;;;22.63;45.07
17521;BME280;8878;-33.370;-70.552;2023-04-04T02:10:45;91928.19;;;22.63;45.50
17521;BME280;8878;-33.370;-70.552;2023-04-04T02:13:16;91926.59;;;22.62;46.22
17521;BME280;8878;-33.370;-70.552;2023-04-04T02:15:45;91926.34;;;22.52;46.40
17521;BME280;8878;-33.370;-70.552;2023-04-04T02:18:15;91918.75;;;22.42;46.56
17521;BME280;8878;-33.370;-70.552;2023-04-04T02:20:44;91919.94;;;22.29;47.05
17521;BME280;8878;-33.370;-70.552;2023-04-04T02:23:14;91921.31;;;22.22;46.91
17521;BME280;8878;-33.370;-70.552;2023-04-04T02:25:44;91913.84;;;22.16;46.75
17521;BME280;8878;-33.370;-70.552;2023-04-04T02:28:13;91925.47;;;22.20;46.77
17521;BME280;8878;-33.370;-70.552;2023-04-04T02:30:44;91918.47;;;22.31;46.73
17521;BME280;8878;-33.370;-70.552;2023-04-04T02:33:13;91911.94;;;22.16;46.24
17521;BME280;8878;-33.370;-70.552;2023-04-04T02:35:43;91907.91;;;22.10;46.18
17521;BME280;8878;-33.370;-70.552;2023-04-04T02:38:12;91908.31;;;22.24;45.87
17521;BME280;8878;-33.370;-70.552;2023-04-04T02:40:43;91906.84;;;22.27;45.47
17521;BME280;8878;-33.370;-70.552;2023-04-04T02:43:13;91898.53;;;22.32;45.20
17521;BME280;8878;-33.370;-70.552;2023-04-04T02:45:46;91890.91;;;22.34;45.30
17521;BME280;8878;-33.370;-70.552;2023-04-04T02:48:15;91890.84;;;22.31;45.13
17521;BME280;8878;-33.370;-70.552;2023-04-04T02:50:46;91879.13;;;22.23;44.56
17521;BME280;8878;-33.370;-70.552;2023-04-04T02:53:15;91887.38;;;22.30;44.65
17521;BME280;8878;-33.370;-70.552;2023-04-04T02:55:45;91877.97;;;22.24;44.10
17521;BME280;8878;-33.370;-70.552;2023-04-04T02:58:14;91872.38;;;22.29;44.36
17521;BME280;8878;-33.370;-70.552;2023-04-04T03:00:45;91868.38;;;22.39;43.94
17521;BME280;8878;-33.370;-70.552;2023-04-04T03:03:21;91866.06;;;22.37;44.52
17521;BME280;8878;-33.370;-70.552;2023-04-04T03:05:50;91861.66;;;22.45;44.31
17521;BME280;8878;-33.370;-70.552;2023-04-04T03:08:20;91847.56;;;22.36;44.12
17521;BME280;8878;-33.370;-70.552;2023-04-04T03:10:49;91851.34;;;22.19;44.19
17521;BME280;8878;-33.370;-70.552;2023-04-04T03:13:18;91845.13;;;22.15;44.05
17521;BME280;8878;-33.370;-70.552;2023-04-04T03:15:49;91847.53;;;22.20;43.67
17521;BME280;8878;-33.370;-70.552;2023-04-04T03:18:18;91850.88;;;22.29;44.12
17521;BME280;8878;-33.370;-70.552;2023-04-04T03:20:48;91850.69;;;22.22;44.28
17521;BME280;8878;-33.370;-70.552;2023-04-04T03:23:18;91858.53;;;22.15;44.33
17521;BME280;8878;-33.370;-70.552;2023-04-04T03:25:47;91849.97;;;22.25;43.98
17521;BME280;8878;-33.370;-70.552;2023-04-04T03:28:16;91858.28;;;21.92;44.63
17521;BME280;8878;-33.370;-70.552;2023-04-04T03:30:45;91844.94;;;22.08;44.24
17521;BME280;8878;-33.370;-70.552;2023-04-04T03:33:16;91854.38;;;22.17;45.51
17521;BME280;8878;-33.370;-70.552;2023-04-04T03:35:47;91854.28;;;22.14;45.67
17521;BME280;8878;-33.370;-70.552;2023-04-04T03:38:17;91856.06;;;22.22;45.77
17521;BME280;8878;-33.370;-70.552;2023-04-04T03:40:46;91863.91;;;22.15;46.49
17521;BME280;8878;-33.370;-70.552;2023-04-04T03:43:15;91856.88;;;22.10;46.56
17521;BME280;8878;-33.370;-70.552;2023-04-04T03:45:44;91852.47;;;22.02;46.75
17521;BME280;8878;-33.370;-70.552;2023-04-04T03:48:16;91853.22;;;22.03;46.17
17521;BME280;8878;-33.370;-70.552;2023-04-04T03:50:47;91855.47;;;22.01;46.18
17521;BME280;8878;-33.370;-70.552;2023-04-04T03:53:16;91852.78;;;21.88;47.19
17521;BME280;8878;-33.370;-70.552;2023-04-04T03:55:45;91842.94;;;21.93;46.72
17521;BME280;8878;-33.370;-70.552;2023-04-04T03:58:14;91846.13;;;22.10;46.62
17521;BME280;8878;-33.370;-70.552;2023-04-04T04:00:44;91843.81;;;22.09;46.97
17521;BME280;8878;-33.370;-70.552;2023-04-04T04:03:13;91846.38;;;22.05;46.76
17521;BME280;8878;-33.370;-70.552;2023-04-04T04:05:44;91855.25;;;21.94;47.16
17521;BME280;8878;-33.370;-70.552;2023-04-04T04:08:13;91846.56;;;21.84;47.26
17521;BME280;8878;-33.370;-70.552;2023-04-04T04:10:42;91849.56;;;21.83;47.22
17521;BME280;8878;-33.370;-70.552;2023-04-04T04:13:12;91849.09;;;21.65;48.00
17521;BME280;8878;-33.370;-70.552;2023-04-04T04:15:41;91851.31;;;21.63;47.29
17521;BME280;8878;-33.370;-70.552;2023-04-04T04:18:10;91846.41;;;21.65;46.63
17521;BME280;8878;-33.370;-70.552;2023-04-04T04:20:40;91844.19;;;21.55;46.36
17521;BME280;8878;-33.370;-70.552;2023-04-04T04:23:11;91836.59;;;21.57;46.76
17521;BME280;8878;-33.370;-70.552;2023-04-04T04:25:40;91829.56;;;21.40;47.63
17521;BME280;8878;-33.370;-70.552;2023-04-04T04:28:10;91828.81;;;21.28;46.69
17521;BME280;8878;-33.370;-70.552;2023-04-04T04:30:39;91820.53;;;21.33;47.20
17521;BME280;8878;-33.370;-70.552;2023-04-04T04:33:09;91823.47;;;21.28;47.05
17521;BME280;8878;-33.370;-70.552;2023-04-04T04:35:38;91820.06;;;21.43;45.84
17521;BME280;8878;-33.370;-70.552;2023-04-04T04:38:11;91821.94;;;21.55;45.77
17521;BME280;8878;-33.370;-70.552;2023-04-04T04:40:40;91818.91;;;21.56;45.26
17521;BME280;8878;-33.370;-70.552;2023-04-04T04:43:09;91827.88;;;21.48;45.60
17521;BME280;8878;-33.370;-70.552;2023-04-04T04:45:40;91819.94;;;21.52;45.23
17521;BME280;8878;-33.370;-70.552;2023-04-04T04:48:22;91811.16;;;21.27;45.20
17521;BME280;8878;-33.370;-70.552;2023-04-04T04:50:55;91812.47;;;21.33;45.10
17521;BME280;8878;-33.370;-70.552;2023-04-04T04:53:26;91807.00;;;21.41;45.01
17521;BME280;8878;-33.370;-70.552;2023-04-04T04:56:00;91808.22;;;21.44;44.82
17521;BME280;8878;-33.370;-70.552;2023-04-04T04:58:29;91802.59;;;21.49;44.71
17521;BME280;8878;-33.370;-70.552;2023-04-04T05:00:59;91804.75;;;21.43;44.38
17521;BME280;8878;-33.370;-70.552;2023-04-04T05:03:34;91797.25;;;21.49;44.78
17521;BME280;8878;-33.370;-70.552;2023-04-04T05:06:04;91793.38;;;21.34;44.49
17521;BME280;8878;-33.370;-70.552;2023-04-04T05:08:35;91798.88;;;21.26;44.29
17521;BME280;8878;-33.370;-70.552;2023-04-04T05:11:05;91796.09;;;21.22;44.47
17521;BME280;8878;-33.370;-70.552;2023-04-04T05:13:34;91787.94;;;21.19;45.14
17521;BME280;8878;-33.370;-70.552;2023-04-04T05:16:03;91790.59;;;21.19;45.57
17521;BME280;8878;-33.370;-70.552;2023-04-04T05:18:33;91797.53;;;21.07;46.01
17521;BME280;8878;-33.370;-70.552;2023-04-04T05:21:03;91797.34;;;21.00;45.87
17521;BME280;8878;-33.370;-70.552;2023-04-04T05:23:35;91787.06;;;20.90;45.81
17521;BME280;8878;-33.370;-70.552;2023-04-04T05:26:04;91790.63;;;20.94;45.23
17521;BME280;8878;-33.370;-70.552;2023-04-04T05:28:34;91791.22;;;20.88;45.08
17521;BME280;8878;-33.370;-70.552;2023-04-04T05:31:03;91781.91;;;20.97;44.70
17521;BME280;8878;-33.370;-70.552;2023-04-04T05:33:32;91789.09;;;20.81;45.03
17521;BME280;8878;-33.370;-70.552;2023-04-04T05:36:02;91787.97;;;20.70;45.03
17521;BME280;8878;-33.370;-70.552;2023-04-04T05:38:31;91780.38;;;20.72;45.93
17521;BME280;8878;-33.370;-70.552;2023-04-04T05:41:03;91788.88;;;20.74;45.43
17521;BME280;8878;-33.370;-70.552;2023-04-04T05:43:32;91773.78;;;20.82;46.41
17521;BME280;8878;-33.370;-70.552;2023-04-04T05:46:01;91773.66;;;20.78;46.51
17521;BME280;8878;-33.370;-70.552;2023-04-04T05:48:31;91770.41;;;20.85;45.31
17521;BME280;8878;-33.370;-70.552;2023-04-04T05:51:01;91772.06;;;20.89;45.58
17521;BME280;8878;-33.370;-70.552;2023-04-04T05:53:30;91781.69;;;20.90;45.99
17521;BME280;8878;-33.370;-70.552;2023-04-04T05:56:02;91777.81;;;20.88;45.79
17521;BME280;8878;-33.370;-70.552;2023-04-04T05:58:32;91777.72;;;20.60;45.56
17521;BME280;8878;-33.370;-70.552;2023-04-04T06:01:06;91776.91;;;20.71;45.00
17521;BME280;8878;-33.370;-70.552;2023-04-04T06:03:35;91766.50;;;20.82;46.28
17521;BME280;8878;-33.370;-70.552;2023-04-04T06:06:05;91770.31;;;20.69;45.61
17521;BME280;8878;-33.370;-70.552;2023-04-04T06:08:37;91768.97;;;20.75;45.91
17521;BME280;8878;-33.370;-70.552;2023-04-04T06:11:08;91769.97;;;20.95;45.32
17521;BME280;8878;-33.370;-70.552;2023-04-04T06:13:39;91768.75;;;20.92;45.69
17521;BME280;8878;-33.370;-70.552;2023-04-04T06:16:08;91768.53;;;20.85;46.03
17521;BME280;8878;-33.370;-70.552;2023-04-04T06:18:37;91763.59;;;20.75;47.75
17521;BME280;8878;-33.370;-70.552;2023-04-04T06:21:07;91765.84;;;20.61;47.89
17521;BME280;8878;-33.370;-70.552;2023-04-04T06:23:36;91777.94;;;20.67;47.23
17521;BME280;8878;-33.370;-70.552;2023-04-04T06:26:07;91775.47;;;20.74;46.55
17521;BME280;8878;-33.370;-70.552;2023-04-04T06:28:37;91784.84;;;20.68;46.99
17521;BME280;8878;-33.370;-70.552;2023-04-04T06:31:14;91771.13;;;20.57;47.37
17521;BME280;8878;-33.370;-70.552;2023-04-04T06:33:43;91773.66;;;20.54;47.33
17521;BME280;8878;-33.370;-70.552;2023-04-04T06:36:13;91765.19;;;20.40;47.22
17521;BME280;8878;-33.370;-70.552;2023-04-04T06:38:42;91761.06;;;20.42;47.06
17521;BME280;8878;-33.370;-70.552;2023-04-04T06:41:13;91764.97;;;20.45;46.27
17521;BME280;8878;-33.370;-70.552;2023-04-04T06:43:43;91766.22;;;20.59;45.59
17521;BME280;8878;-33.370;-70.552;2023-04-04T06:46:14;91775.47;;;20.62;45.43
17521;BME280;8878;-33.370;-70.552;2023-04-04T06:48:43;91769.88;;;20.55;45.85
17521;BME280;8878;-33.370;-70.552;2023-04-04T06:51:13;91769.53;;;20.56;46.05
17521;BME280;8878;-33.370;-70.552;2023-04-04T06:53:42;91771.56;;;20.59;46.24
17521;BME280;8878;-33.370;-70.552;2023-04-04T06:56:13;91763.53;;;20.59;45.90
17521;BME280;8878;-33.370;-70.552;2023-04-04T06:58:43;91761.41;;;20.65;45.77
17521;BME280;8878;-33.370;-70.552;2023-04-04T07:01:12;91764.09;;;20.53;45.84
17521;BME280;8878;-33.370;-70.552;2023-04-04T07:03:41;91763.06;;;20.57;45.69
17521;BME280;8878;-33.370;-70.552;2023-04-04T07:06:12;91764.53;;;20.43;46.75
17521;BME280;8878;-33.370;-70.552;2023-04-04T07:08:41;91758.34;;;20.30;47.45
17521;BME280;8878;-33.370;-70.552;2023-04-04T07:11:12;91765.94;;;20.28;47.58
17521;BME280;8878;-33.370;-70.552;2023-04-04T07:13:42;91761.00;;;20.18;48.14
17521;BME280;8878;-33.370;-70.552;2023-04-04T07:16:11;91753.44;;;20.20;47.62
17521;BME280;8878;-33.370;-70.552;2023-04-04T07:18:42;91759.56;;;20.20;47.50
17521;BME280;8878;-33.370;-70.552;2023-04-04T07:21:11;91752.78;;;20.23;47.34
17521;BME280;8878;-33.370;-70.552;2023-04-04T07:23:41;91750.88;;;20.23;47.42
17521;BME280;8878;-33.370;-70.552;2023-04-04T07:26:10;91753.09;;;20.09;47.26
17521;BME280;8878;-33.370;-70.552;2023-04-04T07:28:41;91747.50;;;20.02;47.66
17521;BME280;8878;-33.370;-70.552;2023-04-04T07:31:10;91736.13;;;20.05;47.31
17521;BME280;8878;-33.370;-70.552;2023-04-04T07:33:40;91735.47;;;20.08;47.17
17521;BME280;8878;-33.370;-70.552;2023-04-04T07:36:09;91737.47;;;20.11;46.90
17521;BME280;8878;-33.370;-70.552;2023-04-04T07:38:39;91739.03;;;20.12;46.24
17521;BME280;8878;-33.370;-70.552;2023-04-04T07:41:08;91739.13;;;20.04;47.06
17521;BME280;8878;-33.370;-70.552;2023-04-04T07:43:40;91735.91;;;20.10;47.01
17521;BME280;8878;-33.370;-70.552;2023-04-04T07:46:09;91733.53;;;19.97;47.28
17521;BME280;8878;-33.370;-70.552;2023-04-04T07:48:39;91737.69;;;19.94;47.06
17521;BME280;8878;-33.370;-70.552;2023-04-04T07:51:08;91731.00;;;20.00;47.21
17521;BME280;8878;-33.370;-70.552;2023-04-04T07:53:38;91735.66;;;19.91;46.55
17521;BME280;8878;-33.370;-70.552;2023-04-04T07:56:07;91730.09;;;20.08;46.45
17521;BME280;8878;-33.370;-70.552;2023-04-04T07:58:37;91721.16;;;20.04;46.50
17521;BME280;8878;-33.370;-70.552;2023-04-04T08:01:08;91718.03;;;19.90;47.41
17521;BME280;8878;-33.370;-70.552;2023-04-04T08:03:38;91723.59;;;19.85;47.19
17521;BME280;8878;-33.370;-70.552;2023-04-04T08:06:07;91727.38;;;19.84;47.41
17521;BME280;8878;-33.370;-70.552;2023-04-04T08:08:38;91727.19;;;19.89;47.48
17521;BME280;8878;-33.370;-70.552;2023-04-04T08:11:07;91720.28;;;19.88;47.33
17521;BME280;8878;-33.370;-70.552;2023-04-04T08:13:37;91723.75;;;20.01;46.86
17521;BME280;8878;-33.370;-70.552;2023-04-04T08:16:08;91719.59;;;19.91;47.39
17521;BME280;8878;-33.370;-70.552;2023-04-04T08:18:37;91723.06;;;19.91;47.34
17521;BME280;8878;-33.370;-70.552;2023-04-04T08:21:07;91724.72;;;19.84;47.13
17521;BME280;8878;-33.370;-70.552;2023-04-04T08:23:36;91715.56;;;19.85;46.91
17521;BME280;8878;-33.370;-70.552;2023-04-04T08:26:05;91722.91;;;19.76;47.33
17521;BME280;8878;-33.370;-70.552;2023-04-04T08:28:35;91733.28;;;19.77;47.60
17521;BME280;8878;-33.370;-70.552;2023-04-04T08:31:05;91727.38;;;19.72;47.91
17521;BME280;8878;-33.370;-70.552;2023-04-04T08:33:36;91728.47;;;19.59;47.12
17521;BME280;8878;-33.370;-70.552;2023-04-04T08:36:06;91726.47;;;19.68;47.35
17521;BME280;8878;-33.370;-70.552;2023-04-04T08:38:35;91717.22;;;19.65;47.32
17521;BME280;8878;-33.370;-70.552;2023-04-04T08:41:04;91720.44;;;19.71;47.53
17521;BME280;8878;-33.370;-70.552;2023-04-04T08:43:34;91729.16;;;19.68;47.56
17521;BME280;8878;-33.370;-70.552;2023-04-04T08:46:05;91728.22;;;19.51;47.59
17521;BME280;8878;-33.370;-70.552;2023-04-04T08:48:38;91727.09;;;19.52;47.56
17521;BME280;8878;-33.370;-70.552;2023-04-04T08:51:11;91723.22;;;19.62;46.90
17521;BME280;8878;-33.370;-70.552;2023-04-04T08:53:42;91721.31;;;19.63;46.81
17521;BME280;8878;-33.370;-70.552;2023-04-04T08:56:12;91723.34;;;19.66;46.62
17521;BME280;8878;-33.370;-70.552;2023-04-04T08:58:42;91723.44;;;19.69;47.24
17521;BME280;8878;-33.370;-70.552;2023-04-04T09:01:12;91723.69;;;19.76;46.71
17521;BME280;8878;-33.370;-70.552;2023-04-04T09:03:44;91724.59;;;19.80;46.20
17521;BME280;8878;-33.370;-70.552;2023-04-04T09:06:15;91722.47;;;19.74;45.48
17521;BME280;8878;-33.370;-70.552;2023-04-04T09:08:46;91725.31;;;19.57;45.48
17521;BME280;8878;-33.370;-70.552;2023-04-04T09:11:19;91723.50;;;19.48;45.87
17521;BME280;8878;-33.370;-70.552;2023-04-04T09:13:50;91724.63;;;19.47;46.01
17521;BME280;8878;-33.370;-70.552;2023-04-04T09:16:20;91725.84;;;19.17;46.77
17521;BME280;8878;-33.370;-70.552;2023-04-04T09:18:51;91730.06;;;19.18;46.65
17521;BME280;8878;-33.370;-70.552;2023-04-04T09:21:20;91732.94;;;19.13;46.58
17521;BME280;8878;-33.370;-70.552;2023-04-04T09:23:58;91734.75;;;19.21;45.93
17521;BME280;8878;-33.370;-70.552;2023-04-04T09:26:28;91738.25;;;19.34;47.39
17521;BME280;8878;-33.370;-70.552;2023-04-04T09:28:58;91740.59;;;19.35;46.50
17521;BME280;8878;-33.370;-70.552;2023-04-04T09:31:28;91736.44;;;19.46;44.98
17521;BME280;8878;-33.370;-70.552;2023-04-04T09:34:00;91745.56;;;19.45;45.96
17521;BME280;8878;-33.370;-70.552;2023-04-04T09:36:30;91740.84;;;19.42;45.76
17521;BME280;8878;-33.370;-70.552;2023-04-04T09:38:59;91740.06;;;19.42;45.86
17521;BME280;8878;-33.370;-70.552;2023-04-04T09:41:29;91734.22;;;19.48;46.19
17521;BME280;8878;-33.370;-70.552;2023-04-04T09:43:58;91740.06;;;19.42;47.69
17521;BME280;8878;-33.370;-70.552;2023-04-04T09:46:28;91746.63;;;19.32;46.99
17521;BME280;8878;-33.370;-70.552;2023-04-04T09:49:00;91742.63;;;19.38;47.37
17521;BME280;8878;-33.370;-70.552;2023-04-04T09:51:39;91749.16;;;19.29;47.62
17521;BME280;8878;-33.370;-70.552;2023-04-04T09:54:10;91746.44;;;19.16;47.94
17521;BME280;8878;-33.370;-70.552;2023-04-04T09:56:40;91742.97;;;19.16;47.18
17521;BME280;8878;-33.370;-70.552;2023-04-04T09:59:11;91749.94;;;19.29;46.87
17521;BME280;8878;-33.370;-70.552;2023-04-04T10:01:42;91747.53;;;19.36;46.26
17521;BME280;8878;-33.370;-70.552;2023-04-04T10:04:15;91747.59;;;19.48;45.90
17521;BME280;8878;-33.370;-70.552;2023-04-04T10:06:44;91747.16;;;19.46;46.76
17521;BME280;8878;-33.370;-70.552;2023-04-04T10:09:15;91748.41;;;19.40;47.71
17521;BME280;8878;-33.370;-70.552;2023-04-04T10:11:44;91748.94;;;19.34;46.98
17521;BME280;8878;-33.370;-70.552;2023-04-04T10:14:15;91747.97;;;19.38;46.45
17521;BME280;8878;-33.370;-70.552;2023-04-04T10:16:45;91750.78;;;19.42;45.96
17521;BME280;8878;-33.370;-70.552;2023-04-04T10:19:16;91753.19;;;19.55;45.20
17521;BME280;8878;-33.370;-70.552;2023-04-04T10:21:47;91752.06;;;19.57;45.86
17521;BME280;8878;-33.370;-70.552;2023-04-04T10:24:16;91753.84;;;19.52;46.32
17521;BME280;8878;-33.370;-70.552;2023-04-04T10:26:46;91760.63;;;19.50;47.09
17521;BME280;8878;-33.370;-70.552;2023-04-04T10:29:15;91763.81;;;19.43;47.28
17521;BME280;8878;-33.370;-70.552;2023-04-04T10:31:46;91761.16;;;19.43;46.92
17521;BME280;8878;-33.370;-70.552;2023-04-04T10:34:23;91768.13;;;19.36;47.29
17521;BME280;8878;-33.370;-70.552;2023-04-04T10:36:56;91766.63;;;19.26;47.59
17521;BME280;8878;-33.370;-70.552;2023-04-04T10:39:31;91773.22;;;19.29;47.49
17521;BME280;8878;-33.370;-70.552;2023-04-04T10:42:04;91783.56;;;19.18;47.93
17521;BME280;8878;-33.370;-70.552;2023-04-04T10:44:37;91792.53;;;19.13;47.70
17521;BME280;8878;-33.370;-70.552;2023-04-04T10:47:13;91787.72;;;19.07;48.04
17521;BME280;8878;-33.370;-70.552;2023-04-04T10:49:46;91788.38;;;19.04;48.20
17521;BME280;8878;-33.370;-70.552;2023-04-04T10:52:18;91790.63;;;18.93;48.57
17521;BME280;8878;-33.370;-70.552;2023-04-04T10:54:50;91800.09;;;18.91;48.56
17521;BME280;8878;-33.370;-70.552;2023-04-04T10:57:21;91796.78;;;18.94;48.53
17521;BME280;8878;-33.370;-70.552;2023-04-04T11:00:00;91795.53;;;18.91;48.50
17521;BME280;8878;-33.370;-70.552;2023-04-04T11:02:47;91798.88;;;18.88;49.10
17521;BME280;8878;-33.370;-70.552;2023-04-04T11:05:21;91796.72;;;18.82;49.28
17521;BME280;8878;-33.370;-70.552;2023-04-04T11:07:58;91802.69;;;18.78;49.56
17521;BME280;8878;-33.370;-70.552;2023-04-04T11:10:29;91810.44;;;18.71;49.55
17521;BME280;8878;-33.370;-70.552;2023-04-04T11:13:02;91817.31;;;18.81;49.57
17521;BME280;8878;-33.370;-70.552;2023-04-04T11:15:45;91816.38;;;18.98;49.37
17521;BME280;8878;-33.370;-70.552;2023-04-04T11:18:19;91810.53;;;19.04;48.81
17521;BME280;8878;-33.370;-70.552;2023-04-04T11:20:53;91814.97;;;19.00;48.40
17521;BME280;8878;-33.370;-70.552;2023-04-04T11:23:23;91813.09;;;19.01;48.08
17521;BME280;8878;-33.370;-70.552;2023-04-04T11:25:55;91817.13;;;19.07;48.09
17521;BME280;8878;-33.370;-70.552;2023-04-04T11:28:27;91811.47;;;19.08;47.71
17521;BME280;8878;-33.370;-70.552;2023-04-04T11:31:25;91815.94;;;18.96;47.43
17521;BME280;8878;-33.370;-70.552;2023-04-04T11:33:56;91822.94;;;19.09;47.94
17521;BME280;8878;-33.370;-70.552;2023-04-04T11:36:54;91824.63;;;19.13;47.67
17521;BME280;8878;-33.370;-70.552;2023-04-04T11:39:27;91830.63;;;19.10;48.27
17521;BME280;8878;-33.370;-70.552;2023-04-04T11:42:00;91835.06;;;19.06;48.42
17521;BME280;8878;-33.370;-70.552;2023-04-04T11:44:31;91838.78;;;19.14;48.48
17521;BME280;8878;-33.370;-70.552;2023-04-04T11:47:09;91840.56;;;19.10;48.37
17521;BME280;8878;-33.370;-70.552;2023-04-04T11:49:40;91837.16;;;19.22;48.06
17521;BME280;8878;-33.370;-70.552;2023-04-04T11:52:13;91839.44;;;19.32;47.19
17521;BME280;8878;-33.370;-70.552;2023-04-04T11:54:44;91847.34;;;19.49;46.84
17521;BME280;8878;-33.370;-70.552;2023-04-04T11:57:15;91843.47;;;19.46;46.39
17521;BME280;8878;-33.370;-70.552;2023-04-04T11:59:46;91853.03;;;19.47;45.78
17521;BME280;8878;-33.370;-70.552;2023-04-04T12:02:19;91858.22;;;19.52;45.12
17521;BME280;8878;-33.370;-70.552;2023-04-04T12:04:51;91859.00;;;19.53;44.87
17521;BME280;8878;-33.370;-70.552;2023-04-04T12:07:23;91856.03;;;19.67;44.69
17521;BME280;8878;-33.370;-70.552;2023-04-04T12:09:52;91859.16;;;19.69;44.28
17521;BME280;8878;-33.370;-70.552;2023-04-04T12:12:22;91863.81;;;19.60;44.21
17521;BME280;8878;-33.370;-70.552;2023-04-04T12:14:53;91860.09;;;19.52;44.29
17521;BME280;8878;-33.370;-70.552;2023-04-04T12:17:23;91855.25;;;19.66;43.80
17521;BME280;8878;-33.370;-70.552;2023-04-04T12:19:57;91850.19;;;19.85;43.69
17521;BME280;8878;-33.370;-70.552;2023-04-04T12:22:33;91854.16;;;20.00;43.11
17521;BME280;8878;-33.370;-70.552;2023-04-04T12:25:03;91849.03;;;20.07;43.53
17521;BME280;8878;-33.370;-70.552;2023-04-04T12:27:33;91850.47;;;20.05;42.81
17521;BME280;8878;-33.370;-70.552;2023-04-04T12:30:04;91841.72;;;20.28;42.70
17521;BME280;8878;-33.370;-70.552;2023-04-04T12:32:41;91849.56;;;20.33;42.48
17521;BME280;8878;-33.370;-70.552;2023-04-04T12:35:11;91846.38;;;20.52;41.92
17521;BME280;8878;-33.370;-70.552;2023-04-04T12:37:58;91839.59;;;20.67;42.09
17521;BME280;8878;-33.370;-70.552;2023-04-04T12:40:34;91839.44;;;20.76;42.35
17521;BME280;8878;-33.370;-70.552;2023-04-04T12:43:06;91839.34;;;20.84;42.27
17521;BME280;8878;-33.370;-70.552;2023-04-04T12:45:38;91834.53;;;20.90;42.38
17521;BME280;8878;-33.370;-70.552;2023-04-04T12:48:10;91837.22;;;21.02;42.24
17521;BME280;8878;-33.370;-70.552;2023-04-04T12:50:50;91831.38;;;21.12;42.09
17521;BME280;8878;-33.370;-70.552;2023-04-04T12:53:23;91828.81;;;21.28;41.42
17521;BME280;8878;-33.370;-70.552;2023-04-04T12:55:55;91829.91;;;21.51;41.28
17521;BME280;8878;-33.370;-70.552;2023-04-04T12:58:25;91827.63;;;21.65;40.83